Time;durP1;ratioP1;P1;durP2;ratioP2;P2;SDS_P1;SDS_P2;PMS_P1;PMS_P2;Temp;Humidity;BMP_temperature;BMP_pressure;BME280_temperature;BME280_humidity;BME280_pressure;Samples;Min_cycle;Max_cycle;Signal;HPM_P1;HPM_P2
2023/09/18 00:01:39;;;;;;;2.40;1.60;;;21.20;82.70;;;;;;5047383;28;20032;-67
2023/09/18 00:04:06;;;;;;;2.10;1.92;;;21.20;82.60;;;;;;5059931;28;20021;-68
2023/09/18 00:06:33;;;;;;;1.30;1.20;;;21.20;82.70;;;;;;5063591;28;20222;-68
2023/09/18 00:08:59;;;;;;;1.95;1.48;;;21.20;82.60;;;;;;5058059;28;20055;-67
2023/09/18 00:11:24;;;;;;;2.22;1.55;;;21.20;82.70;;;;;;5061508;28;20059;-66
2023/09/18 00:13:50;;;;;;;2.65;1.73;;;21.20;82.70;;;;;;5056774;28;20025;-67
2023/09/18 00:16:16;;;;;;;1.73;1.63;;;21.10;82.60;;;;;;5058120;28;20373;-67
2023/09/18 00:18:44;;;;;;;2.22;2.03;;;21.20;82.70;;;;;;5065720;28;20036;-66
2023/09/18 00:21:10;;;;;;;2.92;1.85;;;21.10;82.70;;;;;;5070646;28;20384;-67
2023/09/18 00:23:37;;;;;;;1.58;1.48;;;21.10;82.60;;;;;;5065999;28;20432;-67
2023/09/18 00:26:03;;;;;;;2.80;1.80;;;21.10;82.70;;;;;;5059210;28;20028;-67
2023/09/18 00:28:29;;;;;;;2.10;1.52;;;21.10;82.70;;;;;;5066442;28;20049;-67
2023/09/18 00:30:55;;;;;;;2.03;1.83;;;21.10;82.70;;;;;;5061478;28;20072;-67
2023/09/18 00:33:20;;;;;;;1.67;1.35;;;21.10;82.70;;;;;;5065550;28;20032;-67
2023/09/18 00:35:47;;;;;;;4.38;1.70;;;21.10;82.70;;;;;;5057444;28;20045;-67
2023/09/18 00:38:13;;;;;;;7.05;2.40;;;21.10;82.80;;;;;;5061036;28;20029;-67
2023/09/18 00:40:39;;;;;;;4.38;2.08;;;21.10;82.80;;;;;;5062393;28;20154;-67
2023/09/18 00:43:05;;;;;;;1.65;1.33;;;21.10;82.80;;;;;;5066057;28;20047;-67
2023/09/18 00:45:30;;;;;;;3.35;1.77;;;21.10;82.80;;;;;;5068257;28;20039;-67
2023/09/18 00:47:56;;;;;;;2.70;1.75;;;21.10;82.70;;;;;;5070159;28;20489;-67
2023/09/18 00:50:22;;;;;;;2.90;2.40;;;21.20;82.70;;;;;;5069684;28;20036;-67
2023/09/18 00:52:49;;;;;;;1.90;1.70;;;21.10;82.60;;;;;;5068840;28;20075;-67
2023/09/18 00:55:15;;;;;;;1.98;1.65;;;21.20;82.70;;;;;;5060323;28;20455;-66
2023/09/18 00:57:42;;;;;;;2.45;1.85;;;21.10;82.80;;;;;;5049781;28;20032;-66
2023/09/18 01:00:09;;;;;;;2.75;2.13;;;21.10;82.90;;;;;;5068606;28;20059;-67
2023/09/18 01:02:34;;;;;;;2.17;1.50;;;21.10;82.90;;;;;;5063601;28;20048;-67
2023/09/18 01:05:01;;;;;;;2.95;1.70;;;21.10;82.90;;;;;;5062601;28;20056;-67
2023/09/18 01:07:28;;;;;;;1.88;1.30;;;21.10;83.00;;;;;;5068118;28;20017;-67
2023/09/18 01:09:54;;;;;;;3.72;1.70;;;21.10;83.00;;;;;;5062219;28;20021;-67
2023/09/18 01:12:40;;;;;;;2.60;2.03;;;21.10;82.90;;;;;;5065269;28;20036;-67
2023/09/18 01:15:19;;;;;;;2.30;1.67;;;21.10;83.50;;;;;;5045266;28;20021;-67
2023/09/18 01:17:46;;;;;;;2.58;2.25;;;21.10;83.00;;;;;;5063158;28;20052;-67
2023/09/18 01:20:12;;;;;;;3.42;1.90;;;21.10;83.00;;;;;;5063133;28;20032;-67
2023/09/18 01:22:38;;;;;;;2.30;1.52;;;21.10;83.00;;;;;;5069721;28;20089;-67
2023/09/18 01:25:05;;;;;;;2.63;1.73;;;21.10;83.00;;;;;;5069031;28;20025;-67
2023/09/18 01:27:31;;;;;;;2.88;1.92;;;21.10;82.90;;;;;;5061331;28;20040;-67
2023/09/18 01:29:57;;;;;;;2.05;1.60;;;21.10;82.90;;;;;;5065255;28;20051;-66
2023/09/18 01:32:27;;;;;;;1.98;1.75;;;21.10;83.00;;;;;;5069625;28;20027;-67
2023/09/18 01:34:55;;;;;;;4.10;2.13;;;21.10;83.60;;;;;;5067929;28;20028;-66
2023/09/18 01:37:26;;;;;;;2.95;2.30;;;21.10;83.00;;;;;;5064353;28;20032;-66
2023/09/18 01:39:53;;;;;;;3.20;2.67;;;21.10;83.10;;;;;;5067219;28;20453;-66
2023/09/18 01:42:19;;;;;;;3.08;2.40;;;21.10;83.20;;;;;;5050469;28;20063;-67
2023/09/18 01:44:47;;;;;;;3.22;2.25;;;21.10;83.20;;;;;;5066631;28;20021;-67
2023/09/18 01:47:17;;;;;;;2.92;2.13;;;21.10;83.50;;;;;;5051432;28;20029;-67
2023/09/18 01:49:43;;;;;;;5.03;2.13;;;21.10;83.30;;;;;;5066603;28;20032;-67
2023/09/18 01:52:09;;;;;;;2.33;1.83;;;21.10;83.30;;;;;;5067487;28;20377;-67
2023/09/18 01:54:35;;;;;;;5.20;2.40;;;21.10;83.30;;;;;;5067406;28;20033;-67
2023/09/18 01:57:02;;;;;;;4.43;2.17;;;21.10;83.30;;;;;;5041392;28;20029;-68
2023/09/18 01:59:28;;;;;;;2.45;1.90;;;21.10;83.30;;;;;;5065711;28;20391;-67
2023/09/18 02:01:54;;;;;;;2.63;2.00;;;21.10;83.30;;;;;;5044741;28;20138;-67
2023/09/18 02:04:21;;;;;;;3.15;2.33;;;21.10;83.30;;;;;;5060946;28;20514;-66
2023/09/18 02:06:49;;;;;;;5.88;2.47;;;21.20;83.50;;;;;;5048109;28;20048;-67
2023/09/18 02:09:15;;;;;;;2.75;1.95;;;21.10;83.50;;;;;;5044304;28;20090;-66
2023/09/18 02:11:42;;;;;;;2.80;2.08;;;21.10;83.50;;;;;;5066897;28;20028;-67
2023/09/18 02:14:09;;;;;;;2.92;2.10;;;21.20;83.50;;;;;;5044949;28;20079;-67
2023/09/18 02:16:43;;;;;;;2.92;2.13;;;21.10;83.50;;;;;;5067520;28;20032;-66
2023/09/18 02:19:09;;;;;;;3.17;1.88;;;21.20;83.50;;;;;;5063516;28;20052;-67
2023/09/18 02:21:36;;;;;;;2.53;2.20;;;21.10;83.50;;;;;;5066638;28;20541;-67
2023/09/18 02:24:01;;;;;;;3.10;2.13;;;21.10;83.50;;;;;;5057529;28;20025;-67
2023/09/18 02:26:28;;;;;;;2.75;2.30;;;21.20;83.60;;;;;;5042502;28;20098;-66
2023/09/18 02:28:54;;;;;;;2.53;1.98;;;21.20;83.60;;;;;;5060578;28;20029;-66
2023/09/18 02:31:20;;;;;;;2.75;1.92;;;21.20;84.10;;;;;;5029389;28;20126;-67
2023/09/18 02:33:47;;;;;;;3.30;2.17;;;21.20;83.50;;;;;;5043713;28;20678;-67
2023/09/18 02:36:13;;;;;;;2.42;2.22;;;21.20;83.50;;;;;;5065457;28;20041;-67
2023/09/18 02:38:39;;;;;;;3.85;2.22;;;21.20;83.50;;;;;;5059677;28;20029;-66
2023/09/18 02:41:04;;;;;;;2.88;1.90;;;21.20;83.60;;;;;;5065585;28;20016;-66
2023/09/18 02:43:30;;;;;;;5.75;2.58;;;21.10;83.70;;;;;;5058509;28;20099;-66
2023/09/18 02:45:55;;;;;;;4.25;2.10;;;21.10;83.70;;;;;;5064329;28;20395;-67
2023/09/18 02:48:21;;;;;;;6.93;2.15;;;21.10;83.70;;;;;;5063710;28;20094;-67
2023/09/18 02:50:47;;;;;;;3.25;2.35;;;21.10;83.70;;;;;;5062901;28;20142;-67
2023/09/18 02:53:21;;;;;;;2.28;1.98;;;21.10;83.80;;;;;;5048954;28;20021;-68
2023/09/18 02:55:49;;;;;;;3.30;2.08;;;21.10;83.80;;;;;;5058137;28;20028;-67
2023/09/18 02:58:16;;;;;;;3.05;1.65;;;21.10;83.80;;;;;;5067835;28;20020;-67
2023/09/18 03:00:45;;;;;;;3.05;2.08;;;21.10;83.80;;;;;;5058750;28;20033;-67
2023/09/18 03:03:12;;;;;;;4.13;2.47;;;21.10;83.80;;;;;;5068337;28;20059;-67
2023/09/18 03:05:38;;;;;;;3.42;2.33;;;21.10;83.80;;;;;;5066603;28;20078;-67
2023/09/18 03:08:05;;;;;;;2.45;1.85;;;21.10;83.80;;;;;;5064481;28;20151;-67
2023/09/18 03:10:34;;;;;;;3.22;2.25;;;21.10;83.80;;;;;;5059392;28;20025;-66
2023/09/18 03:13:01;;;;;;;3.35;2.58;;;21.10;83.80;;;;;;5049218;28;20029;-67
2023/09/18 03:15:27;;;;;;;3.95;2.10;;;21.00;83.80;;;;;;5063449;28;20035;-66
2023/09/18 03:17:52;;;;;;;2.67;2.20;;;21.00;83.80;;;;;;5067522;28;20107;-66
2023/09/18 03:20:18;;;;;;;2.85;2.00;;;21.00;83.80;;;;;;5067121;28;20036;-67
2023/09/18 03:22:44;;;;;;;2.97;2.20;;;21.00;83.80;;;;;;5063685;28;20415;-67
2023/09/18 03:25:10;;;;;;;3.25;2.35;;;21.00;83.80;;;;;;5061290;28;20431;-67
2023/09/18 03:27:35;;;;;;;2.53;1.98;;;21.00;83.80;;;;;;5057606;28;20032;-66
2023/09/18 03:30:01;;;;;;;3.03;1.90;;;21.00;83.80;;;;;;5064475;28;20451;-67
2023/09/18 03:32:27;;;;;;;2.60;2.10;;;21.00;83.80;;;;;;5046634;28;20028;-66
2023/09/18 03:34:53;;;;;;;2.90;2.25;;;21.00;83.90;;;;;;5039662;28;20115;-67
2023/09/18 03:37:19;;;;;;;1.88;1.52;;;21.00;83.90;;;;;;5058099;28;20078;-67
2023/09/18 03:39:45;;;;;;;2.25;1.77;;;21.00;83.90;;;;;;5062158;28;20116;-66
2023/09/18 03:42:11;;;;;;;2.80;1.67;;;21.00;83.90;;;;;;5029777;28;20112;-67
2023/09/18 03:44:37;;;;;;;3.28;2.35;;;21.00;83.90;;;;;;5066673;28;20036;-66
2023/09/18 03:47:03;;;;;;;2.85;1.80;;;21.00;83.90;;;;;;5063272;28;20025;-66
2023/09/18 03:49:29;;;;;;;2.90;1.67;;;21.10;83.90;;;;;;5062531;28;20029;-66
2023/09/18 03:51:55;;;;;;;2.10;1.70;;;21.10;84.00;;;;;;5066921;28;20021;-67
2023/09/18 03:54:21;;;;;;;6.10;2.40;;;21.10;84.00;;;;;;5066640;28;20036;-67
2023/09/18 03:56:46;;;;;;;2.05;1.95;;;21.10;84.00;;;;;;5061464;28;20035;-67
2023/09/18 03:59:12;;;;;;;2.25;1.90;;;21.10;84.10;;;;;;5062571;28;20035;-67
2023/09/18 04:01:39;;;;;;;3.33;2.08;;;21.10;84.00;;;;;;5065987;28;20036;-66
2023/09/18 04:04:05;;;;;;;3.47;1.88;;;21.10;84.10;;;;;;5049750;28;20098;-67
2023/09/18 04:06:41;;;;;;;1.90;1.70;;;21.10;84.10;;;;;;5060231;28;20488;-67
2023/09/18 04:09:07;;;;;;;2.97;1.83;;;21.10;84.20;;;;;;5045511;28;20115;-67
2023/09/18 04:11:33;;;;;;;2.85;1.85;;;21.10;84.20;;;;;;5062445;28;20115;-67
2023/09/18 04:14:00;;;;;;;3.28;2.05;;;21.10;84.10;;;;;;5066185;28;20109;-67
2023/09/18 04:16:27;;;;;;;2.85;1.98;;;21.10;84.10;;;;;;5052863;28;20025;-67
2023/09/18 04:18:54;;;;;;;2.55;1.88;;;21.10;84.30;;;;;;5043396;28;20079;-67
2023/09/18 04:21:21;;;;;;;2.75;2.00;;;21.10;84.30;;;;;;5057098;28;20450;-67
2023/09/18 04:23:47;;;;;;;2.22;1.77;;;21.10;84.40;;;;;;5061536;28;20025;-67
2023/09/18 04:26:15;;;;;;;2.25;1.90;;;21.10;84.40;;;;;;5063543;28;20376;-67
2023/09/18 04:28:41;;;;;;;2.60;2.05;;;21.10;84.40;;;;;;5062564;28;20521;-67
2023/09/18 04:31:07;;;;;;;2.70;1.83;;;21.10;84.40;;;;;;5065519;28;20049;-67
2023/09/18 04:33:33;;;;;;;3.03;1.92;;;21.10;84.40;;;;;;5067881;28;20368;-67
2023/09/18 04:35:59;;;;;;;2.38;1.70;;;21.10;84.40;;;;;;5068537;28;20039;-67
2023/09/18 04:38:24;;;;;;;1.70;1.42;;;21.10;84.40;;;;;;5061511;28;20036;-67
2023/09/18 04:40:58;;;;;;;3.53;2.08;;;21.10;84.40;;;;;;5054644;28;20679;-67
2023/09/18 04:43:24;;;;;;;3.22;1.67;;;21.10;84.40;;;;;;5059768;28;20032;-67
2023/09/18 04:45:50;;;;;;;2.17;1.33;;;21.10;84.40;;;;;;5061187;28;20036;-67
2023/09/18 04:48:16;;;;;;;2.20;1.77;;;21.10;84.40;;;;;;5069816;28;20059;-67
2023/09/18 04:50:45;;;;;;;1.77;1.63;;;21.10;84.50;;;;;;5070014;28;20033;-67
2023/09/18 04:53:12;;;;;;;2.22;1.77;;;21.10;84.50;;;;;;5066308;28;20024;-67
2023/09/18 04:55:40;;;;;;;3.08;2.20;;;21.00;84.50;;;;;;5066655;28;20558;-67
2023/09/18 04:58:06;;;;;;;1.65;1.35;;;21.00;85.20;;;;;;5068782;28;20020;-67
2023/09/18 05:00:33;;;;;;;2.33;1.77;;;21.00;84.60;;;;;;5064962;28;20119;-67
2023/09/18 05:03:03;;;;;;;2.58;1.88;;;21.00;84.60;;;;;;5068213;28;20098;-67
2023/09/18 05:05:29;;;;;;;1.98;1.73;;;21.00;84.60;;;;;;5067853;28;20073;-67
2023/09/18 05:07:55;;;;;;;3.05;1.73;;;21.00;84.70;;;;;;5043955;28;20029;-67
2023/09/18 05:10:20;;;;;;;3.20;2.63;;;21.00;84.80;;;;;;5068760;28;20501;-67
2023/09/18 05:12:46;;;;;;;3.58;2.05;;;21.00;84.90;;;;;;5029940;28;20397;-67
2023/09/18 05:15:15;;;;;;;1.75;1.60;;;21.00;84.90;;;;;;5067480;28;20119;-67
2023/09/18 05:17:44;;;;;;;3.45;2.47;;;21.10;84.80;;;;;;5068044;28;20075;-67
2023/09/18 05:20:15;;;;;;;4.20;2.30;;;21.10;85.30;;;;;;5062940;28;20020;-67
2023/09/18 05:22:45;;;;;;;3.80;2.40;;;21.10;85.60;;;;;;5066258;28;20403;-66
2023/09/18 05:25:11;;;;;;;5.07;2.97;;;21.20;85.80;;;;;;5066947;28;20111;-66
2023/09/18 05:27:44;;;;;;;2.90;2.03;;;21.20;86.20;;;;;;5068248;28;20041;-67
2023/09/18 05:30:23;;;;;;;2.30;1.90;;;21.20;86.10;;;;;;5066301;28;20036;-67
2023/09/18 05:32:49;;;;;;;6.15;2.95;;;21.30;86.00;;;;;;5061597;28;20403;-66
2023/09/18 05:35:15;;;;;;;3.60;2.53;;;21.30;86.50;;;;;;5067226;28;20025;-66
2023/09/18 05:37:43;;;;;;;3.35;1.83;;;21.30;86.50;;;;;;5069117;28;20035;-66
2023/09/18 05:40:10;;;;;;;2.45;1.80;;;21.30;86.30;;;;;;5068396;28;20021;-67
2023/09/18 05:42:43;;;;;;;3.30;2.40;;;21.30;86.20;;;;;;5067194;28;20039;-67
2023/09/18 05:45:10;;;;;;;3.28;2.42;;;21.40;86.10;;;;;;5051719;28;20039;-67
2023/09/18 05:47:37;;;;;;;8.82;2.55;;;21.40;86.30;;;;;;5044375;28;20471;-67
2023/09/18 05:50:06;;;;;;;2.80;1.70;;;21.30;86.30;;;;;;5061717;28;20021;-67
2023/09/18 05:52:33;;;;;;;2.85;2.00;;;21.40;86.30;;;;;;5066279;28;20045;-66
2023/09/18 05:55:02;;;;;;;3.15;2.47;;;21.40;86.50;;;;;;5059131;28;20027;-67
2023/09/18 05:57:28;;;;;;;2.33;1.80;;;21.40;86.60;;;;;;5056909;28;20035;-67
2023/09/18 05:59:57;;;;;;;2.80;1.95;;;21.40;86.60;;;;;;5062226;28;20024;-67
2023/09/18 06:02:24;;;;;;;11.75;2.58;;;21.40;86.40;;;;;;5062722;28;20021;-67
2023/09/18 06:04:59;;;;;;;6.78;2.40;;;21.40;86.90;;;;;;5064313;28;20020;-67
2023/09/18 06:07:26;;;;;;;2.60;2.35;;;21.40;87.40;;;;;;5044567;28;20024;-67
2023/09/18 06:09:52;;;;;;;4.53;2.58;;;21.40;86.80;;;;;;5064816;28;20434;-66
2023/09/18 06:12:18;;;;;;;1.75;1.42;;;21.40;86.70;;;;;;5067642;28;20107;-66
2023/09/18 06:14:44;;;;;;;2.22;1.70;;;21.40;86.60;;;;;;5047829;28;20063;-66
2023/09/18 06:17:10;;;;;;;2.47;1.92;;;21.40;86.50;;;;;;5058293;28;20499;-66
2023/09/18 06:19:36;;;;;;;3.58;2.40;;;21.50;86.50;;;;;;5057557;28;20108;-66
2023/09/18 06:22:02;;;;;;;2.72;2.15;;;21.40;86.40;;;;;;5064092;28;20035;-67
2023/09/18 06:24:27;;;;;;;4.25;2.72;;;21.50;86.60;;;;;;5048310;28;20310;-66
2023/09/18 06:26:53;;;;;;;4.18;2.33;;;21.50;86.50;;;;;;5066302;28;20034;-66
2023/09/18 06:29:19;;;;;;;2.00;1.80;;;21.50;86.40;;;;;;5058807;28;20043;-67
2023/09/18 06:31:46;;;;;;;5.40;1.73;;;21.60;86.40;;;;;;5061770;28;20062;-67
2023/09/18 06:34:11;;;;;;;2.08;1.70;;;21.60;86.30;;;;;;5060013;28;20499;-66
2023/09/18 06:36:37;;;;;;;3.85;2.03;;;21.60;86.20;;;;;;5061326;28;20078;-67
2023/09/18 06:39:03;;;;;;;3.25;1.65;;;21.60;86.00;;;;;;5062491;28;20028;-66
2023/09/18 06:41:29;;;;;;;2.42;1.30;;;21.70;86.00;;;;;;5041817;28;20032;-66
2023/09/18 06:43:54;;;;;;;2.08;1.50;;;21.70;85.90;;;;;;5062499;28;20044;-66
2023/09/18 06:46:20;;;;;;;2.35;2.08;;;21.70;85.90;;;;;;5064320;28;20033;-65
2023/09/18 06:48:49;;;;;;;1.65;1.35;;;21.70;85.90;;;;;;5048719;28;20028;-66
2023/09/18 06:51:15;;;;;;;1.58;1.48;;;21.70;85.90;;;;;;5062191;28;20067;-66
2023/09/18 06:53:42;;;;;;;3.20;1.60;;;21.70;85.80;;;;;;5063714;28;20503;-66
2023/09/18 06:56:09;;;;;;;4.25;2.10;;;21.70;86.10;;;;;;5065688;28;20195;-66
2023/09/18 06:58:35;;;;;;;2.30;1.90;;;21.70;86.00;;;;;;5060841;28;20070;-67
2023/09/18 07:01:00;;;;;;;4.00;1.88;;;21.70;86.00;;;;;;5064740;28;20048;-66
2023/09/18 07:03:26;;;;;;;4.88;1.90;;;21.70;86.10;;;;;;5058159;28;20122;-66
2023/09/18 07:05:52;;;;;;;2.35;1.85;;;21.70;86.00;;;;;;5065210;28;20499;-66
2023/09/18 07:08:22;;;;;;;2.00;1.52;;;21.70;86.00;;;;;;5065210;28;20496;-67
2023/09/18 07:10:50;;;;;;;2.55;2.28;;;21.70;86.00;;;;;;5061163;28;20122;-67
2023/09/18 07:13:16;;;;;;;2.28;1.75;;;21.70;86.10;;;;;;5060380;28;20064;-67
2023/09/18 07:15:41;;;;;;;2.70;1.90;;;21.70;86.00;;;;;;5062630;28;20458;-67
2023/09/18 07:18:09;;;;;;;2.22;1.63;;;21.70;86.00;;;;;;5065600;28;20056;-68
2023/09/18 07:20:35;;;;;;;2.42;1.50;;;21.70;86.00;;;;;;5047616;28;20055;-67
2023/09/18 07:23:01;;;;;;;1.88;1.52;;;21.70;86.00;;;;;;5063669;28;20112;-67
2023/09/18 07:25:27;;;;;;;1.75;1.35;;;21.80;85.80;;;;;;5060684;28;20032;-67
2023/09/18 07:27:53;;;;;;;1.45;1.13;;;21.80;85.60;;;;;;5065389;28;20108;-67
2023/09/18 07:30:21;;;;;;;3.30;1.85;;;21.80;85.50;;;;;;5065262;28;20099;-67
2023/09/18 07:32:47;;;;;;;2.00;1.48;;;21.80;85.30;;;;;;5065830;28;20036;-68
2023/09/18 07:35:15;;;;;;;1.83;1.42;;;21.80;85.20;;;;;;5051256;28;20032;-68
2023/09/18 07:37:44;;;;;;;1.25;1.10;;;21.80;85.20;;;;;;5068023;28;20521;-65
2023/09/18 07:40:10;;;;;;;2.60;1.23;;;21.80;85.10;;;;;;5067703;28;20476;-67
2023/09/18 07:42:35;;;;;;;1.42;0.80;;;21.80;85.00;;;;;;5062456;28;20483;-67
2023/09/18 07:45:01;;;;;;;1.77;0.90;;;21.80;84.90;;;;;;5051220;28;20022;-67
2023/09/18 07:47:27;;;;;;;1.10;1.00;;;21.80;84.90;;;;;;5049329;28;20526;-67
2023/09/18 07:49:54;;;;;;;1.58;0.70;;;21.80;84.80;;;;;;5067594;28;20017;-67
2023/09/18 07:52:20;;;;;;;1.30;1.15;;;21.80;84.70;;;;;;5067500;28;20028;-68
2023/09/18 07:54:46;;;;;;;2.95;0.95;;;21.80;84.60;;;;;;5051377;28;20036;-65
2023/09/18 07:57:11;;;;;;;3.90;0.90;;;21.80;84.60;;;;;;5038637;28;20066;-65
2023/09/18 07:59:38;;;;;;;1.27;0.98;;;21.80;84.30;;;;;;5066572;28;20040;-65
2023/09/18 08:02:05;;;;;;;1.55;0.95;;;21.80;84.30;;;;;;5051209;28;20482;-65
2023/09/18 08:04:34;;;;;;;1.23;1.10;;;21.80;84.10;;;;;;5064940;28;20033;-64
2023/09/18 08:07:00;;;;;;;0.90;0.90;;;21.80;84.00;;;;;;5042087;28;20057;-65
2023/09/18 08:09:29;;;;;;;6.00;1.63;;;21.80;84.10;;;;;;5063790;28;20068;-67
2023/09/18 08:11:55;;;;;;;3.85;1.25;;;21.80;84.00;;;;;;5051888;28;20036;-66
2023/09/18 08:14:26;;;;;;;2.83;1.15;;;21.80;84.00;;;;;;5046252;28;20059;-67
2023/09/18 08:16:59;;;;;;;1.38;1.02;;;21.70;83.60;;;;;;5064184;28;20020;-67
2023/09/18 08:19:26;;;;;;;0.68;0.68;;;21.80;83.50;;;;;;5052607;28;20039;-67
2023/09/18 08:21:54;;;;;;;0.90;0.90;;;21.80;83.40;;;;;;5062655;28;20021;-68
2023/09/18 08:24:20;;;;;;;0.93;0.88;;;21.80;83.30;;;;;;5063714;28;20028;-68
2023/09/18 08:26:46;;;;;;;1.23;1.10;;;21.90;83.20;;;;;;5067411;28;20102;-68
2023/09/18 08:29:13;;;;;;;1.42;0.93;;;21.90;82.80;;;;;;5067284;28;20060;-67
2023/09/18 08:31:39;;;;;;;3.42;1.15;;;21.90;82.80;;;;;;5069616;28;20063;-65
2023/09/18 08:34:04;;;;;;;2.60;0.80;;;21.90;82.70;;;;;;5064858;28;20032;-65
2023/09/18 08:36:31;;;;;;;3.50;1.17;;;21.90;82.30;;;;;;5065056;28;20534;-65
2023/09/18 08:38:57;;;;;;;4.72;0.90;;;22.00;82.50;;;;;;5050889;28;20107;-65
2023/09/18 08:41:26;;;;;;;1.77;1.20;;;22.00;82.30;;;;;;5061465;28;20502;-65
2023/09/18 08:43:56;;;;;;;4.38;0.80;;;22.10;81.90;;;;;;5067854;28;20033;-66
2023/09/18 08:46:23;;;;;;;1.30;1.05;;;22.10;81.70;;;;;;5064237;28;20032;-67
2023/09/18 08:48:50;;;;;;;0.90;0.90;;;22.10;81.30;;;;;;5047388;28;20081;-66
2023/09/18 08:51:17;;;;;;;1.45;0.73;;;22.30;81.40;;;;;;5067165;28;20047;-64
2023/09/18 08:53:44;;;;;;;0.98;0.80;;;22.40;81.40;;;;;;5050408;28;20515;-66
2023/09/18 08:56:10;;;;;;;2.28;0.88;;;22.50;81.20;;;;;;5048971;28;20182;-64
2023/09/18 08:58:42;;;;;;;0.95;0.73;;;22.40;81.50;;;;;;5069758;28;20145;-63
2023/09/18 09:01:09;;;;;;;1.23;0.77;;;22.40;80.70;;;;;;5065128;28;20029;-66
2023/09/18 09:03:42;;;;;;;2.47;0.90;;;22.40;80.30;;;;;;5066657;28;20033;-65
2023/09/18 09:06:09;;;;;;;0.80;0.80;;;22.40;80.40;;;;;;5048916;28;20066;-67
2023/09/18 09:08:36;;;;;;;0.50;0.47;;;22.30;80.00;;;;;;5054163;28;20403;-65
2023/09/18 09:11:05;;;;;;;0.93;0.80;;;22.40;80.40;;;;;;5066365;28;20044;-66
2023/09/18 09:13:31;;;;;;;1.13;1.02;;;22.40;80.00;;;;;;5066400;28;20460;-66
2023/09/18 09:15:58;;;;;;;1.00;0.90;;;22.30;80.20;;;;;;5056186;28;20039;-65
2023/09/18 09:18:26;;;;;;;0.90;0.57;;;22.30;80.30;;;;;;5064274;28;20177;-74
2023/09/18 09:20:57;;;;;;;3.95;1.38;;;22.30;80.00;;;;;;5060811;28;20078;-66
2023/09/18 09:23:23;;;;;;;0.60;0.60;;;22.30;80.10;;;;;;5061500;28;20031;-67
2023/09/18 09:25:49;;;;;;;0.70;0.70;;;22.40;80.20;;;;;;5038987;28;20823;-71
2023/09/18 09:28:16;;;;;;;2.25;0.90;;;22.50;80.40;;;;;;5053066;28;20763;-66
2023/09/18 09:30:42;;;;;;;0.60;0.60;;;22.50;80.20;;;;;;5062834;28;20564;-64
2023/09/18 09:33:11;;;;;;;0.75;0.75;;;22.60;80.20;;;;;;5039675;28;20078;-67
2023/09/18 09:35:37;;;;;;;0.68;0.60;;;22.60;79.80;;;;;;5056642;28;20523;-65
2023/09/18 09:38:11;;;;;;;1.00;0.80;;;22.70;79.60;;;;;;5032576;28;20025;-65
2023/09/18 09:40:41;;;;;;;0.82;0.60;;;22.80;79.00;;;;;;5067027;28;20373;-66
2023/09/18 09:43:13;;;;;;;1.30;0.77;;;22.90;79.00;;;;;;5065660;28;20029;-65
2023/09/18 09:45:40;;;;;;;1.35;0.80;;;23.10;78.40;;;;;;5066031;28;20036;-64
2023/09/18 09:48:07;;;;;;;0.70;0.70;;;23.40;77.60;;;;;;5067530;28;20388;-67
2023/09/18 09:50:48;;;;;;;0.55;0.55;;;23.60;77.50;;;;;;5064873;28;20510;-64
2023/09/18 09:53:14;;;;;;;1.77;0.60;;;23.80;77.00;;;;;;5066608;28;20024;-66
2023/09/18 09:55:40;;;;;;;0.63;0.63;;;24.00;76.20;;;;;;5064087;28;20112;-69
2023/09/18 09:58:08;;;;;;;1.08;0.52;;;24.00;75.80;;;;;;5047507;28;20426;-68
2023/09/18 10:00:47;;;;;;;1.05;0.82;;;24.10;74.20;;;;;;5049650;28;20036;-67
2023/09/18 10:03:15;;;;;;;1.23;1.05;;;24.10;73.80;;;;;;5064936;28;20059;-64
2023/09/18 10:05:46;;;;;;;1.30;0.60;;;24.10;73.70;;;;;;5049478;28;20027;-65
2023/09/18 10:08:12;;;;;;;0.98;0.75;;;24.20;74.30;;;;;;5066790;28;20033;-69
2023/09/18 10:10:42;;;;;;;0.75;0.75;;;24.30;73.90;;;;;;5061422;28;20032;-69
2023/09/18 10:13:49;;;;;;;0.68;0.68;;;24.40;73.50;;;;;;5040681;28;20087;-70
2023/09/18 10:16:21;;;;;;;1.77;0.80;;;24.60;73.10;;;;;;5065146;28;20024;-71
2023/09/18 10:19:21;;;;;;;0.50;0.50;;;24.80;72.50;;;;;;5047778;28;20033;-70
2023/09/18 10:22:10;;;;;;;3.15;1.20;;;25.10;72.50;;;;;;5064101;28;20027;-69
2023/09/18 10:24:41;;;;;;;1.92;0.93;;;25.50;71.40;;;;;;5061175;28;20545;-71
2023/09/18 10:27:08;;;;;;;0.98;0.68;;;25.40;69.50;;;;;;5050444;28;20029;-66
2023/09/18 10:29:36;;;;;;;0.95;0.93;;;25.00;68.80;;;;;;5054070;28;20041;-67
2023/09/18 10:32:07;;;;;;;1.10;1.00;;;24.70;69.90;;;;;;5058080;28;20072;-68
2023/09/18 10:34:35;;;;;;;0.70;0.70;;;24.40;70.60;;;;;;5060471;28;20048;-68
2023/09/18 10:37:06;;;;;;;1.08;0.77;;;24.10;71.50;;;;;;5062201;28;20036;-68
2023/09/18 10:39:35;;;;;;;1.08;0.60;;;23.90;72.50;;;;;;5057617;28;20048;-68
2023/09/18 10:42:03;;;;;;;0.80;0.70;;;23.80;73.10;;;;;;5062677;28;20020;-68
2023/09/18 10:44:31;;;;;;;1.60;1.10;;;23.80;73.00;;;;;;5057208;28;20437;-69
2023/09/18 10:47:00;;;;;;;1.00;0.77;;;23.80;72.90;;;;;;5060980;28;20051;-68
2023/09/18 10:49:25;;;;;;;1.13;1.02;;;23.80;73.00;;;;;;5048279;28;20333;-68
2023/09/18 10:51:54;;;;;;;4.47;1.17;;;24.00;72.70;;;;;;5032405;28;20067;-68
2023/09/18 10:54:23;;;;;;;1.38;1.05;;;24.00;71.90;;;;;;5040673;28;20028;-67
2023/09/18 10:56:50;;;;;;;1.45;0.88;;;23.90;71.40;;;;;;5042374;28;20033;-68
2023/09/18 10:59:16;;;;;;;1.23;0.68;;;23.80;71.40;;;;;;5064062;28;20355;-67
2023/09/18 11:01:42;;;;;;;2.13;1.00;;;23.80;71.90;;;;;;5057739;28;20025;-66
2023/09/18 11:04:10;;;;;;;1.75;1.02;;;23.80;71.80;;;;;;5047138;28;20032;-68
2023/09/18 11:06:54;;;;;;;0.85;0.75;;;23.80;71.80;;;;;;5063487;28;20127;-67
2023/09/18 11:09:45;;;;;;;4.15;1.63;;;23.70;71.80;;;;;;5064169;28;20488;-66
2023/09/18 11:12:13;;;;;;;1.08;1.02;;;23.60;71.80;;;;;;5063109;28;20043;-67
2023/09/18 11:14:49;;;;;;;2.10;1.50;;;23.60;72.40;;;;;;5046586;28;20040;-68
2023/09/18 11:17:33;;;;;;;2.17;1.30;;;23.60;72.30;;;;;;5063781;28;20032;-67
2023/09/18 11:20:14;;;;;;;0.98;0.80;;;23.70;72.70;;;;;;5043579;28;20471;-68
2023/09/18 11:23:00;;;;;;;1.70;0.70;;;23.70;72.10;;;;;;5061802;28;20031;-68
2023/09/18 11:25:37;;;;;;;1.00;0.88;;;23.70;72.20;;;;;;5043273;28;20067;-68
2023/09/18 11:28:13;;;;;;;1.33;1.08;;;23.60;71.70;;;;;;5058261;28;20032;-68
2023/09/18 11:31:03;;;;;;;1.17;1.00;;;23.60;71.90;;;;;;5062131;28;20136;-68
2023/09/18 11:33:39;;;;;;;6.65;1.50;;;23.70;71.50;;;;;;5061533;28;20017;-68
2023/09/18 11:36:14;;;;;;;1.88;1.00;;;23.70;71.60;;;;;;5065125;28;20040;-66
2023/09/18 11:38:54;;;;;;;2.53;0.93;;;23.90;70.90;;;;;;5043834;28;20074;-67
2023/09/18 11:41:23;;;;;;;1.63;1.10;;;24.00;70.90;;;;;;5046530;28;20158;-68
2023/09/18 11:43:49;;;;;;;1.70;1.30;;;23.90;71.10;;;;;;5043960;28;20433;-68
2023/09/18 11:46:19;;;;;;;1.60;1.40;;;23.80;71.30;;;;;;5055909;28;20121;-68
2023/09/18 11:48:47;;;;;;;2.83;1.33;;;23.70;71.90;;;;;;5044648;28;20033;-68
2023/09/18 11:51:14;;;;;;;1.40;0.98;;;23.60;72.10;;;;;;5045356;28;20048;-66
2023/09/18 11:53:43;;;;;;;1.20;1.10;;;23.40;72.30;;;;;;5056999;28;20123;-68
2023/09/18 11:56:17;;;;;;;2.45;1.10;;;23.30;72.80;;;;;;5042549;28;20032;-68
2023/09/18 11:58:47;;;;;;;2.00;1.42;;;23.20;73.10;;;;;;5060094;28;20040;-68
2023/09/18 12:01:15;;;;;;;2.00;1.20;;;23.10;74.20;;;;;;5060468;28;20027;-67
2023/09/18 12:03:41;;;;;;;2.78;1.38;;;23.20;75.50;;;;;;5062171;28;20495;-67
2023/09/18 12:06:09;;;;;;;1.73;1.20;;;23.60;76.00;;;;;;5061596;28;20119;-67
2023/09/18 12:08:35;;;;;;;1.65;1.15;;;24.20;75.30;;;;;;5041944;28;20020;-67
2023/09/18 12:11:07;;;;;;;2.38;1.92;;;24.70;74.20;;;;;;5044041;28;20086;-68
2023/09/18 12:13:34;;;;;;;2.15;1.38;;;25.10;72.40;;;;;;5061019;28;20456;-67
2023/09/18 12:16:01;;;;;;;2.00;1.60;;;25.40;72.00;;;;;;5067833;28;20039;-67
2023/09/18 12:18:30;;;;;;;1.40;1.30;;;25.60;71.00;;;;;;5045271;28;20024;-67
2023/09/18 12:20:56;;;;;;;5.07;1.63;;;25.80;70.50;;;;;;5064745;28;20562;-67
2023/09/18 12:23:22;;;;;;;2.13;1.42;;;26.00;69.70;;;;;;5048472;28;20115;-68
2023/09/18 12:25:50;;;;;;;1.30;1.20;;;26.10;68.50;;;;;;5067385;28;20101;-67
2023/09/18 12:28:17;;;;;;;4.55;1.30;;;26.20;66.80;;;;;;5068319;28;20032;-67
2023/09/18 12:30:46;;;;;;;1.23;1.13;;;26.10;65.30;;;;;;5066599;28;20496;-66
2023/09/18 12:33:12;;;;;;;1.65;1.40;;;26.20;66.00;;;;;;5046473;28;20149;-67
2023/09/18 12:35:40;;;;;;;5.05;1.65;;;26.50;66.30;;;;;;5065594;28;20037;-67
2023/09/18 12:38:19;;;;;;;3.35;1.25;;;26.40;63.70;;;;;;5068420;28;20029;-66
2023/09/18 12:40:46;;;;;;;1.38;0.77;;;26.20;64.30;;;;;;5068063;28;20028;-66
2023/09/18 12:43:15;;;;;;;2.25;1.20;;;26.30;64.90;;;;;;5044116;28;20040;-66
2023/09/18 12:45:42;;;;;;;1.58;0.90;;;26.40;63.00;;;;;;5031582;28;20757;-67
2023/09/18 12:48:09;;;;;;;3.28;1.23;;;26.40;64.40;;;;;;5064304;28;20029;-67
2023/09/18 12:50:35;;;;;;;1.95;1.10;;;26.40;64.00;;;;;;5063757;28;20115;-67
2023/09/18 12:53:12;;;;;;;2.35;1.23;;;26.40;63.80;;;;;;5065756;28;20534;-66